Time;durP1;ratioP1;P1;durP2;ratioP2;P2;SDS_P1;SDS_P2;PMS_P1;PMS_P2;Temp;Humidity;BMP_temperature;BMP_pressure;BME280_temperature;BME280_humidity;BME280_pressure;Samples;Min_cycle;Max_cycle;Signal;HPM_P1;HPM_P2
2021/03/15 00:00:11;;;;;;;21.08;9.07;;;3.30;99.90;;;;;;5017705;28;20791;-60
2021/03/15 00:02:38;;;;;;;17.05;9.50;;;3.30;99.90;;;;;;5020032;28;20486;-60
2021/03/15 00:05:04;;;;;;;17.50;8.98;;;3.20;99.90;;;;;;5004742;28;20033;-60
2021/03/15 00:07:30;;;;;;;18.35;9.35;;;3.20;99.90;;;;;;4998578;28;20479;-60
2021/03/15 00:09:55;;;;;;;20.17;11.02;;;3.20;99.90;;;;;;5007487;28;20022;-60
2021/03/15 00:12:21;;;;;;;19.85;10.55;;;3.20;99.90;;;;;;4994680;28;20081;-61
2021/03/15 00:14:47;;;;;;;17.67;10.65;;;3.20;99.90;;;;;;5015691;28;20033;-61
2021/03/15 00:17:12;;;;;;;18.67;10.80;;;3.20;99.90;;;;;;5016442;28;20041;-61
2021/03/15 00:19:38;;;;;;;19.27;9.98;;;3.30;99.90;;;;;;5015041;28;20519;-61
2021/03/15 00:22:03;;;;;;;22.35;10.48;;;3.30;99.90;;;;;;5008529;28;20040;-61
2021/03/15 00:24:29;;;;;;;17.70;10.00;;;3.40;99.90;;;;;;5006657;28;20113;-61
2021/03/15 00:26:54;;;;;;;21.35;10.25;;;3.40;99.90;;;;;;5004056;28;20116;-60
2021/03/15 00:29:21;;;;;;;20.17;10.80;;;3.50;99.90;;;;;;5000504;28;20031;-61
2021/03/15 00:31:48;;;;;;;22.13;9.98;;;3.60;99.90;;;;;;5014876;28;20555;-62
2021/03/15 00:34:14;;;;;;;23.38;10.43;;;3.60;99.90;;;;;;5009722;28;20068;-61
2021/03/15 00:36:39;;;;;;;14.30;8.85;;;3.60;99.90;;;;;;5020275;28;20033;-61
2021/03/15 00:39:05;;;;;;;20.85;10.30;;;3.70;99.90;;;;;;4985395;28;20037;-62
2021/03/15 00:41:30;;;;;;;19.38;10.15;;;3.70;99.90;;;;;;4984584;28;20034;-62
2021/03/15 00:43:56;;;;;;;19.42;9.15;;;3.80;99.90;;;;;;5011504;28;20034;-63
2021/03/15 00:46:22;;;;;;;18.67;9.90;;;3.80;99.90;;;;;;5013651;28;20042;-62
2021/03/15 00:48:47;;;;;;;18.17;7.80;;;3.80;99.90;;;;;;5016446;28;20466;-61
2021/03/15 00:51:13;;;;;;;15.30;9.45;;;3.80;99.90;;;;;;5012994;28;20452;-63
2021/03/15 00:53:38;;;;;;;18.02;9.38;;;3.90;99.90;;;;;;5021270;28;20037;-62
2021/03/15 00:56:04;;;;;;;18.50;9.15;;;3.90;99.90;;;;;;5022948;28;20049;-61
2021/03/15 00:58:29;;;;;;;23.45;8.45;;;3.90;99.90;;;;;;5000610;28;20384;-60
2021/03/15 01:00:55;;;;;;;14.30;9.10;;;3.90;99.90;;;;;;5018696;28;20491;-61
2021/03/15 01:03:21;;;;;;;24.92;11.27;;;3.90;99.90;;;;;;4995064;28;20117;-61
2021/03/15 01:05:49;;;;;;;26.70;10.73;;;3.90;99.90;;;;;;5007684;28;20034;-60
2021/03/15 01:08:16;;;;;;;17.60;9.98;;;3.90;99.90;;;;;;5003419;28;20026;-59
2021/03/15 01:10:44;;;;;;;19.45;9.48;;;4.00;99.90;;;;;;5003534;28;20034;-58
2021/03/15 01:13:10;;;;;;;27.92;10.15;;;4.00;99.90;;;;;;4993246;28;20029;-59
2021/03/15 01:15:38;;;;;;;18.10;10.60;;;4.00;99.90;;;;;;4997979;28;20460;-58
2021/03/15 01:18:04;;;;;;;20.70;9.73;;;4.00;99.90;;;;;;5004413;28;20040;-60
2021/03/15 01:20:30;;;;;;;26.30;10.45;;;4.00;99.90;;;;;;5010606;28;20034;-61
2021/03/15 01:22:55;;;;;;;21.23;11.20;;;4.10;99.90;;;;;;5016794;28;20407;-60
2021/03/15 01:25:42;;;;;;;17.02;9.90;;;4.10;99.90;;;;;;4998905;28;20408;-59
2021/03/15 01:28:09;;;;;;;16.92;9.55;;;4.10;99.90;;;;;;5007443;28;20026;-60
2021/03/15 01:30:36;;;;;;;21.40;11.02;;;4.10;99.90;;;;;;4998151;28;20026;-61
2021/03/15 01:33:03;;;;;;;23.63;10.05;;;4.10;99.90;;;;;;5016657;28;20083;-59
2021/03/15 01:35:28;;;;;;;19.02;10.63;;;4.10;99.90;;;;;;4977221;28;20046;-59
2021/03/15 01:37:54;;;;;;;17.88;9.85;;;4.10;99.90;;;;;;4984158;28;20049;-61
2021/03/15 01:40:21;;;;;;;21.65;10.50;;;4.10;99.90;;;;;;4999834;28;20036;-59
2021/03/15 01:42:46;;;;;;;19.33;10.13;;;4.10;99.90;;;;;;4976461;28;20054;-60
2021/03/15 01:45:13;;;;;;;18.13;9.10;;;4.10;99.90;;;;;;5001692;28;20045;-59
2021/03/15 01:47:39;;;;;;;21.15;9.63;;;4.10;99.90;;;;;;5006318;28;20163;-57
2021/03/15 01:50:06;;;;;;;21.50;9.15;;;4.10;99.90;;;;;;5009790;28;20052;-59
2021/03/15 01:52:34;;;;;;;26.67;9.75;;;4.20;99.90;;;;;;5014659;28;20591;-60
2021/03/15 01:55:00;;;;;;;18.17;9.38;;;4.20;99.90;;;;;;5013249;28;20361;-60
2021/03/15 01:57:26;;;;;;;25.15;10.25;;;4.20;99.90;;;;;;5009992;28;20037;-60
2021/03/15 01:59:51;;;;;;;19.77;10.20;;;4.20;99.90;;;;;;5009384;28;20018;-60
2021/03/15 02:02:18;;;;;;;22.95;10.20;;;4.20;99.90;;;;;;5013403;28;20025;-59
2021/03/15 02:04:44;;;;;;;23.42;8.73;;;4.20;99.90;;;;;;5010944;28;20023;-61
2021/03/15 02:07:10;;;;;;;19.55;9.98;;;4.20;99.90;;;;;;5008860;28;20024;-60
2021/03/15 02:09:35;;;;;;;19.80;10.60;;;4.20;99.90;;;;;;5014193;28;20030;-60
2021/03/15 02:12:25;;;;;;;14.60;9.05;;;4.20;99.90;;;;;;4993640;28;20038;-61
2021/03/15 02:15:23;;;;;;;28.95;10.43;;;4.20;99.90;;;;;;5011971;28;20116;-61
2021/03/15 02:18:24;;;;;;;19.38;8.85;;;4.20;99.90;;;;;;5002332;28;20139;-61
2021/03/15 02:20:59;;;;;;;19.38;8.40;;;4.30;99.90;;;;;;5005774;28;20065;-60
2021/03/15 02:23:32;;;;;;;25.02;8.55;;;4.30;99.90;;;;;;5003749;28;20044;-60
2021/03/15 02:26:15;;;;;;;23.42;9.93;;;4.30;99.90;;;;;;5005021;28;20057;-59
2021/03/15 02:28:47;;;;;;;20.40;9.13;;;4.30;99.90;;;;;;4994582;28;20045;-60
2021/03/15 02:31:35;;;;;;;18.63;9.70;;;4.30;99.90;;;;;;5009220;28;20515;-60
2021/03/15 02:34:26;;;;;;;25.92;9.23;;;4.30;99.90;;;;;;5006718;28;20037;-61
2021/03/15 02:36:54;;;;;;;23.58;9.38;;;4.30;99.90;;;;;;5027453;28;20040;-59
2021/03/15 02:39:26;;;;;;;18.95;8.93;;;4.20;99.90;;;;;;4996480;28;20034;-62
2021/03/15 02:41:55;;;;;;;18.73;9.38;;;4.20;99.90;;;;;;4981406;28;20049;-60
2021/03/15 02:44:21;;;;;;;25.35;9.70;;;4.20;99.90;;;;;;5010627;28;20030;-61
2021/03/15 02:46:48;;;;;;;21.38;9.07;;;4.20;99.90;;;;;;4996253;28;20053;-61
2021/03/15 02:49:16;;;;;;;16.38;8.85;;;4.20;99.90;;;;;;5027422;28;20029;-60
2021/03/15 02:51:43;;;;;;;30.83;8.93;;;4.20;99.90;;;;;;5011663;28;20498;-61
2021/03/15 02:54:12;;;;;;;19.98;8.77;;;4.30;99.90;;;;;;5008048;28;20030;-60
2021/03/15 02:56:47;;;;;;;18.92;8.05;;;4.20;99.90;;;;;;5002409;28;20121;-61
2021/03/15 02:59:15;;;;;;;21.90;8.13;;;4.30;99.90;;;;;;5013866;28;20079;-61
2021/03/15 03:01:44;;;;;;;19.60;8.02;;;4.30;99.90;;;;;;5000189;28;20021;-60
2021/03/15 03:04:11;;;;;;;21.92;7.50;;;4.30;99.90;;;;;;5013391;28;20477;-61
2021/03/15 03:06:40;;;;;;;25.35;9.05;;;4.30;99.90;;;;;;5017141;28;20034;-60
2021/03/15 03:09:09;;;;;;;19.77;7.80;;;4.30;99.90;;;;;;4999207;28;20021;-60
2021/03/15 03:11:37;;;;;;;13.75;8.95;;;4.30;99.90;;;;;;4994061;28;20021;-57
2021/03/15 03:14:06;;;;;;;14.05;6.95;;;4.40;99.90;;;;;;5009532;28;20022;-58
2021/03/15 03:16:37;;;;;;;19.92;7.78;;;4.30;99.90;;;;;;4998028;28;20037;-61
2021/03/15 03:19:03;;;;;;;19.00;7.70;;;4.40;99.90;;;;;;5013788;28;20029;-61
2021/03/15 03:21:30;;;;;;;17.98;7.30;;;4.30;99.90;;;;;;4998897;28;20068;-60
2021/03/15 03:23:58;;;;;;;21.83;7.10;;;4.40;99.90;;;;;;5004314;28;20033;-60
2021/03/15 03:26:26;;;;;;;19.83;7.53;;;4.40;99.90;;;;;;5001297;28;20041;-60
2021/03/15 03:28:52;;;;;;;17.33;7.38;;;4.40;99.90;;;;;;5006958;28;20394;-57
2021/03/15 03:31:19;;;;;;;14.93;6.50;;;4.40;99.90;;;;;;5011901;28;20036;-61
2021/03/15 03:33:45;;;;;;;15.02;6.90;;;4.40;99.90;;;;;;5010019;28;20040;-58
2021/03/15 03:36:11;;;;;;;18.58;6.28;;;4.40;99.90;;;;;;5007574;28;20045;-61
2021/03/15 03:38:38;;;;;;;15.82;7.22;;;4.40;99.90;;;;;;4978661;28;20136;-60
2021/03/15 03:41:04;;;;;;;16.90;7.60;;;4.40;99.90;;;;;;5009219;28;20038;-59
2021/03/15 03:43:29;;;;;;;16.90;6.10;;;4.40;99.90;;;;;;4985389;28;20111;-62
2021/03/15 03:45:55;;;;;;;21.45;7.38;;;4.40;99.90;;;;;;5017925;28;20357;-61
2021/03/15 03:48:21;;;;;;;15.18;6.38;;;4.40;99.90;;;;;;5004796;28;20030;-62
2021/03/15 03:50:46;;;;;;;15.90;6.45;;;4.40;99.90;;;;;;5002850;28;20072;-61
2021/03/15 03:53:21;;;;;;;18.08;6.47;;;4.40;99.90;;;;;;5001736;28;20034;-61
2021/03/15 03:56:00;;;;;;;10.10;5.65;;;4.40;99.90;;;;;;5009684;28;20056;-61
2021/03/15 03:58:36;;;;;;;11.00;6.32;;;4.40;99.90;;;;;;4998721;28;20022;-61
2021/03/15 04:01:03;;;;;;;17.52;5.82;;;4.40;99.90;;;;;;5010548;28;20030;-60
2021/03/15 04:03:29;;;;;;;17.83;6.70;;;4.40;99.90;;;;;;5002212;28;20503;-60
2021/03/15 04:06:06;;;;;;;10.52;5.97;;;4.40;99.90;;;;;;5001003;28;20037;-60
2021/03/15 04:08:54;;;;;;;14.30;5.20;;;4.40;99.90;;;;;;5004940;28;20483;-62
2021/03/15 04:11:22;;;;;;;19.25;6.65;;;4.40;99.90;;;;;;4994329;28;20114;-60
2021/03/15 04:13:50;;;;;;;17.60;6.85;;;4.40;99.90;;;;;;5014699;28;20029;-60
2021/03/15 04:16:17;;;;;;;16.00;6.55;;;4.40;99.90;;;;;;5015457;28;20038;-60
2021/03/15 04:18:47;;;;;;;16.13;7.63;;;4.40;99.90;;;;;;5004710;28;20026;-60
2021/03/15 04:21:17;;;;;;;14.23;6.53;;;4.40;99.90;;;;;;5014127;28;20057;-60
2021/03/15 04:23:44;;;;;;;11.25;6.45;;;4.40;99.90;;;;;;5003573;28;20053;-60
2021/03/15 04:26:11;;;;;;;13.18;6.18;;;4.40;99.90;;;;;;5001337;28;20030;-58
2021/03/15 04:28:38;;;;;;;18.85;7.78;;;4.40;99.90;;;;;;5014717;28;20037;-60
2021/03/15 04:31:07;;;;;;;19.13;7.47;;;4.40;99.90;;;;;;5019789;28;20156;-60
2021/03/15 04:33:35;;;;;;;16.30;7.05;;;4.50;99.90;;;;;;5012064;28;20029;-61
2021/03/15 04:36:01;;;;;;;12.43;6.97;;;4.50;99.90;;;;;;5008390;28;20030;-59
2021/03/15 04:38:27;;;;;;;13.45;7.47;;;4.50;99.90;;;;;;5003972;28;20038;-59
2021/03/15 04:40:54;;;;;;;13.95;7.13;;;4.50;99.90;;;;;;4996164;28;20211;-62
2021/03/15 04:43:21;;;;;;;10.77;6.43;;;4.50;99.90;;;;;;5008368;28;20038;-62
2021/03/15 04:45:49;;;;;;;15.70;7.40;;;4.50;99.90;;;;;;5011140;28;20116;-61
2021/03/15 04:48:18;;;;;;;13.32;6.80;;;4.50;99.90;;;;;;4997994;28;20034;-61
2021/03/15 04:50:45;;;;;;;11.68;7.25;;;4.50;99.90;;;;;;5010069;28;20028;-60
2021/03/15 04:53:13;;;;;;;13.25;6.45;;;4.50;99.90;;;;;;5007777;28;20112;-61
2021/03/15 04:55:42;;;;;;;13.27;6.47;;;4.50;99.90;;;;;;5001844;28;20820;-59
2021/03/15 04:58:09;;;;;;;10.60;6.22;;;4.50;99.90;;;;;;5012455;28;20109;-58
2021/03/15 05:00:39;;;;;;;11.90;6.00;;;4.50;99.90;;;;;;4996023;28;20491;-60
2021/03/15 05:03:08;;;;;;;7.40;6.25;;;4.50;99.90;;;;;;5011430;28;20014;-59
2021/03/15 05:05:37;;;;;;;13.48;7.95;;;4.50;99.90;;;;;;5005599;28;20127;-60
2021/03/15 05:08:05;;;;;;;10.50;7.45;;;4.50;99.90;;;;;;5017901;28;20028;-59
2021/03/15 05:10:32;;;;;;;17.48;10.65;;;4.50;99.90;;;;;;5008559;28;20017;-60
2021/03/15 05:12:59;;;;;;;18.70;10.13;;;4.50;99.90;;;;;;5018137;28;20030;-59
2021/03/15 05:15:25;;;;;;;14.32;10.43;;;4.60;99.90;;;;;;5019611;28;20034;-60
2021/03/15 05:17:52;;;;;;;16.30;10.25;;;4.60;99.90;;;;;;4997563;28;20510;-65
2021/03/15 05:20:18;;;;;;;12.45;9.50;;;4.60;99.90;;;;;;5017165;28;20033;-61
2021/03/15 05:22:45;;;;;;;14.38;9.80;;;4.60;99.90;;;;;;4992978;28;20038;-59
2021/03/15 05:25:13;;;;;;;15.98;11.18;;;4.60;99.90;;;;;;5019666;28;20034;-59
2021/03/15 05:27:45;;;;;;;15.65;11.05;;;4.60;99.90;;;;;;5004617;28;20036;-61
2021/03/15 05:30:13;;;;;;;20.17;13.43;;;4.60;99.90;;;;;;5011009;28;20026;-59
2021/03/15 05:32:44;;;;;;;27.02;15.48;;;4.70;99.90;;;;;;5007416;28;20038;-61
2021/03/15 05:35:11;;;;;;;23.33;12.80;;;4.70;99.90;;;;;;5013150;28;20412;-61
2021/03/15 05:37:37;;;;;;;22.10;14.35;;;4.70;99.90;;;;;;5014068;28;20081;-60
2021/03/15 05:40:10;;;;;;;25.85;14.05;;;4.70;99.90;;;;;;4998779;28;20030;-61
2021/03/15 05:42:44;;;;;;;23.65;14.07;;;4.70;99.90;;;;;;5007550;28;20053;-60
2021/03/15 05:45:45;;;;;;;17.33;12.15;;;4.80;99.90;;;;;;5002624;28;20072;-60
2021/03/15 05:48:19;;;;;;;16.38;10.23;;;4.80;99.90;;;;;;5008807;28;20038;-60
2021/03/15 05:51:20;;;;;;;12.57;8.50;;;4.80;99.90;;;;;;5011989;28;20109;-61
2021/03/15 05:54:16;;;;;;;9.90;6.05;;;4.90;99.90;;;;;;5007460;28;20022;-59
2021/03/15 05:56:48;;;;;;;9.48;5.38;;;4.80;99.90;;;;;;4990568;28;20444;-60
2021/03/15 05:59:26;;;;;;;6.55;4.00;;;4.80;99.90;;;;;;5013117;28;20511;-61
2021/03/15 06:02:29;;;;;;;4.32;2.83;;;4.70;99.90;;;;;;5006992;28;20103;-59
2021/03/15 06:05:24;;;;;;;5.70;3.03;;;4.60;99.90;;;;;;5007124;28;20034;-60
2021/03/15 06:07:56;;;;;;;3.60;2.50;;;4.50;99.90;;;;;;5004411;28;20022;-56
2021/03/15 06:10:35;;;;;;;3.55;2.38;;;4.40;99.90;;;;;;5011415;28;20065;-59
2021/03/15 06:13:03;;;;;;;5.95;2.63;;;4.30;99.90;;;;;;4995214;28;20079;-58
2021/03/15 06:15:40;;;;;;;6.13;3.17;;;4.30;99.90;;;;;;4997254;28;20569;-57
2021/03/15 06:18:07;;;;;;;7.40;3.70;;;4.20;99.90;;;;;;5009760;28;20030;-58
2021/03/15 06:20:35;;;;;;;5.80;3.78;;;4.20;99.90;;;;;;5015408;28;20117;-60
2021/03/15 06:23:02;;;;;;;7.32;3.85;;;4.20;99.90;;;;;;5006051;28;20029;-58
2021/03/15 06:25:28;;;;;;;8.13;4.22;;;4.30;99.90;;;;;;4996927;28;20510;-60
2021/03/15 06:27:54;;;;;;;6.40;3.80;;;4.30;99.90;;;;;;5009926;28;20029;-61
2021/03/15 06:30:21;;;;;;;8.38;4.80;;;4.30;99.90;;;;;;5018745;28;20049;-60
2021/03/15 06:32:51;;;;;;;8.70;4.80;;;4.40;99.90;;;;;;5003051;28;20022;-59
2021/03/15 06:35:18;;;;;;;7.68;4.78;;;4.40;99.90;;;;;;5016378;28;20075;-57
2021/03/15 06:37:44;;;;;;;7.65;4.93;;;4.40;99.90;;;;;;4997057;28;20053;-59
2021/03/15 06:40:13;;;;;;;7.47;5.43;;;4.40;99.90;;;;;;5010015;28;20022;-61
2021/03/15 06:42:39;;;;;;;6.82;4.93;;;4.50;99.90;;;;;;4994433;28;20124;-60
2021/03/15 06:45:09;;;;;;;8.48;5.20;;;4.50;99.90;;;;;;5017381;28;20505;-61
2021/03/15 06:47:36;;;;;;;8.77;4.82;;;4.60;99.90;;;;;;5017864;28;20537;-61
2021/03/15 06:50:02;;;;;;;8.60;5.18;;;4.60;99.90;;;;;;5005567;28;20025;-59
2021/03/15 06:52:27;;;;;;;8.10;5.07;;;4.60;99.90;;;;;;5011025;28;20022;-59
2021/03/15 06:55:00;;;;;;;10.15;5.93;;;4.60;99.90;;;;;;4999238;28;20133;-61
2021/03/15 06:57:25;;;;;;;10.25;5.72;;;4.60;99.90;;;;;;5015775;28;20049;-60
2021/03/15 06:59:55;;;;;;;8.32;5.20;;;4.60;99.90;;;;;;5014743;28;20124;-59
2021/03/15 07:02:30;;;;;;;10.73;5.97;;;4.60;99.90;;;;;;4988905;28;20132;-59
2021/03/15 07:05:08;;;;;;;8.10;5.20;;;4.70;99.90;;;;;;5009056;28;20037;-59
2021/03/15 07:07:37;;;;;;;9.05;5.88;;;4.70;99.90;;;;;;5001651;28;20093;-61
2021/03/15 07:10:18;;;;;;;13.35;6.25;;;4.80;99.90;;;;;;5017307;28;20283;-59
2021/03/15 07:12:44;;;;;;;14.98;7.65;;;4.80;99.90;;;;;;4995131;28;20025;-58
2021/03/15 07:15:11;;;;;;;14.23;7.97;;;4.80;99.90;;;;;;5009351;28;20030;-60
2021/03/15 07:17:37;;;;;;;13.98;8.32;;;4.80;99.90;;;;;;4998826;28;20037;-57
2021/03/15 07:20:05;;;;;;;14.25;8.40;;;4.90;99.90;;;;;;5009012;28;20068;-60
2021/03/15 07:22:31;;;;;;;19.15;10.10;;;5.00;99.90;;;;;;5016702;28;20052;-60
2021/03/15 07:25:08;;;;;;;15.95;9.02;;;5.00;99.90;;;;;;5017581;28;20467;-59
2021/03/15 07:27:37;;;;;;;18.02;10.38;;;5.00;99.90;;;;;;5002008;28;20038;-60
2021/03/15 07:30:36;;;;;;;13.82;9.38;;;5.00;99.90;;;;;;5017640;28;20038;-60
2021/03/15 07:33:05;;;;;;;16.88;10.60;;;5.10;99.90;;;;;;5003833;28;20034;-59
2021/03/15 07:35:36;;;;;;;19.25;10.75;;;5.10;99.90;;;;;;5029586;28;20105;-58
2021/03/15 07:38:03;;;;;;;18.50;11.40;;;5.10;99.90;;;;;;5011332;28;20533;-56
2021/03/15 07:40:46;;;;;;;19.85;11.65;;;5.10;99.90;;;;;;5000787;28;20786;-61
2021/03/15 07:43:27;;;;;;;17.13;10.15;;;5.10;99.90;;;;;;4989349;28;20058;-61
2021/03/15 07:45:53;;;;;;;15.18;10.27;;;5.10;99.90;;;;;;5008330;28;20060;-61
2021/03/15 07:48:23;;;;;;;15.40;9.85;;;5.20;99.90;;;;;;5005885;28;20037;-59
2021/03/15 07:51:02;;;;;;;18.05;10.18;;;5.20;99.90;;;;;;5004483;28;20554;-60
2021/03/15 07:53:35;;;;;;;15.68;9.07;;;5.50;99.90;;;;;;4999722;28;20033;-62
2021/03/15 07:56:01;;;;;;;14.45;8.07;;;6.00;99.90;;;;;;5002267;28;20130;-58
2021/03/15 07:58:29;;;;;;;12.85;7.63;;;6.10;99.90;;;;;;4991347;28;20030;-61
2021/03/15 08:00:56;;;;;;;14.05;7.72;;;6.40;99.90;;;;;;5005269;28;20101;-60
2021/03/15 08:03:26;;;;;;;14.60;8.07;;;6.60;99.90;;;;;;5010211;28;20105;-59
2021/03/15 08:06:00;;;;;;;16.45;9.00;;;6.70;99.90;;;;;;5010943;28;20038;-61
2021/03/15 08:08:26;;;;;;;17.70;9.65;;;6.30;99.90;;;;;;5002929;28;20033;-60
2021/03/15 08:10:52;;;;;;;15.38;9.90;;;6.40;99.90;;;;;;5001622;28;20031;-60
2021/03/15 08:13:27;;;;;;;17.05;10.98;;;6.40;99.90;;;;;;4981836;28;20069;-60
2021/03/15 08:15:58;;;;;;;17.55;10.10;;;6.40;99.90;;;;;;5004977;28;20084;-59
2021/03/15 08:18:26;;;;;;;20.20;10.15;;;6.70;99.90;;;;;;4996400;28;20506;-60
2021/03/15 08:21:04;;;;;;;15.98;10.30;;;6.80;99.90;;;;;;5020876;28;20028;-60
2021/03/15 08:23:39;;;;;;;18.00;11.45;;;6.60;99.90;;;;;;4993552;28;20043;-60
2021/03/15 08:26:07;;;;;;;18.15;11.68;;;6.70;99.90;;;;;;5008161;28;20026;-60
2021/03/15 08:28:34;;;;;;;17.35;12.27;;;6.80;99.90;;;;;;5006962;28;20168;-61
2021/03/15 08:31:21;;;;;;;16.02;10.77;;;6.70;99.90;;;;;;5020182;28;20037;-60
2021/03/15 08:33:48;;;;;;;21.25;11.07;;;7.00;99.90;;;;;;5000029;28;20527;-61
2021/03/15 08:36:15;;;;;;;15.35;9.88;;;7.00;99.90;;;;;;5000162;28;20487;-61
2021/03/15 08:38:40;;;;;;;14.15;9.55;;;7.20;99.90;;;;;;5010073;28;20484;-60
2021/03/15 08:41:10;;;;;;;22.02;10.52;;;7.40;99.90;;;;;;5002671;28;20022;-61
2021/03/15 08:43:46;;;;;;;15.93;9.65;;;7.70;99.90;;;;;;5007279;28;20427;-60
2021/03/15 08:46:33;;;;;;;13.95;8.07;;;7.70;99.90;;;;;;5008316;28;20025;-61
2021/03/15 08:49:05;;;;;;;12.82;7.65;;;7.60;99.90;;;;;;5009530;28;20551;-62
2021/03/15 08:51:34;;;;;;;21.88;5.70;;;7.90;99.90;;;;;;5010953;28;20030;-61
2021/03/15 08:54:04;;;;;;;11.57;5.35;;;8.30;99.90;;;;;;5000710;28;20137;-61
2021/03/15 08:56:29;;;;;;;11.65;5.32;;;8.00;99.90;;;;;;5003877;28;20034;-61
2021/03/15 08:58:59;;;;;;;10.63;5.38;;;7.60;99.90;;;;;;5002393;28;20038;-60
2021/03/15 09:01:27;;;;;;;8.95;5.18;;;7.50;99.90;;;;;;5021158;28;20038;-61
2021/03/15 09:04:04;;;;;;;11.98;6.40;;;7.40;99.90;;;;;;5005794;28;20037;-59
2021/03/15 09:06:32;;;;;;;12.60;5.47;;;7.40;99.90;;;;;;5015775;28;20169;-61
2021/03/15 09:09:23;;;;;;;9.63;5.32;;;7.50;99.90;;;;;;5021839;28;20032;-60
2021/03/15 09:11:51;;;;;;;8.05;4.18;;;7.40;99.90;;;;;;4998596;28;20022;-61
2021/03/15 09:14:26;;;;;;;10.55;4.65;;;7.10;99.90;;;;;;4989239;28;20133;-61
2021/03/15 09:16:57;;;;;;;11.50;5.18;;;6.90;99.90;;;;;;5007977;28;20029;-61
2021/03/15 09:19:25;;;;;;;12.43;4.95;;;6.80;99.90;;;;;;5015380;28;20035;-61
2021/03/15 09:21:56;;;;;;;12.38;5.72;;;6.60;99.90;;;;;;5015436;28;20033;-60
2021/03/15 09:24:49;;;;;;;13.63;5.90;;;6.50;99.90;;;;;;4997635;28;20144;-61
2021/03/15 09:27:25;;;;;;;15.55;6.43;;;6.60;99.90;;;;;;5009374;28;20490;-61
2021/03/15 09:29:58;;;;;;;12.60;5.97;;;6.50;99.90;;;;;;4998805;28;20430;-60
2021/03/15 09:32:56;;;;;;;11.05;6.07;;;6.70;99.90;;;;;;5005832;28;20038;-61
2021/03/15 09:35:42;;;;;;;22.55;6.82;;;6.60;99.90;;;;;;4997101;28;20112;-61
2021/03/15 09:38:12;;;;;;;18.88;7.70;;;6.60;99.90;;;;;;5018247;28;20026;-60
2021/03/15 09:40:40;;;;;;;18.85;8.05;;;6.70;99.90;;;;;;5004602;28;20534;-61
2021/03/15 09:43:07;;;;;;;16.13;6.88;;;6.80;99.90;;;;;;5009838;28;20095;-61
2021/03/15 09:45:40;;;;;;;14.57;6.35;;;6.90;99.90;;;;;;5016969;28;20109;-61
2021/03/15 09:48:20;;;;;;;16.17;6.32;;;6.90;99.90;;;;;;5011779;28;20026;-61
2021/03/15 09:50:54;;;;;;;15.75;6.22;;;6.80;99.90;;;;;;5012595;28;20037;-60
2021/03/15 09:53:20;;;;;;;13.73;5.63;;;6.70;99.90;;;;;;5013945;28;20036;-61
2021/03/15 09:55:47;;;;;;;14.25;5.93;;;6.70;99.90;;;;;;5013571;28;22391;-62
2021/03/15 09:58:14;;;;;;;12.20;4.72;;;6.90;99.90;;;;;;5009943;28;20101;-61
2021/03/15 10:00:41;;;;;;;15.50;4.95;;;7.80;99.90;;;;;;5014627;28;20083;-61
2021/03/15 10:03:07;;;;;;;7.90;4.60;;;8.70;99.90;;;;;;4995186;28;20147;-61
2021/03/15 10:05:33;;;;;;;11.18;4.63;;;8.80;99.90;;;;;;5013261;28;22937;-61
2021/03/15 10:07:59;;;;;;;10.73;5.03;;;9.20;99.90;;;;;;5009492;28;20030;-61
2021/03/15 10:10:25;;;;;;;13.43;5.68;;;10.10;99.90;;;;;;4998912;28;20030;-62
2021/03/15 10:13:03;;;;;;;6.78;3.50;;;10.90;99.90;;;;;;4990145;28;20040;-63
2021/03/15 10:15:29;;;;;;;11.40;3.70;;;10.50;99.90;;;;;;5005222;28;20650;-62
2021/03/15 10:17:55;;;;;;;12.93;4.05;;;9.80;99.90;;;;;;5012075;28;20113;-62
2021/03/15 10:20:27;;;;;;;9.02;3.40;;;9.00;99.90;;;;;;4981426;28;20130;-60
2021/03/15 10:22:53;;;;;;;11.93;3.47;;;8.00;99.90;;;;;;5008862;28;20030;-62
2021/03/15 10:25:19;;;;;;;8.48;3.42;;;7.60;99.90;;;;;;5009586;28;20040;-61
2021/03/15 10:27:57;;;;;;;9.50;4.10;;;7.20;99.90;;;;;;5008460;28;20387;-62
2021/03/15 10:30:32;;;;;;;8.55;3.30;;;7.30;99.90;;;;;;5003142;28;20023;-62
2021/03/15 10:32:59;;;;;;;9.57;4.45;;;7.00;99.90;;;;;;5010026;28;20101;-60
2021/03/15 10:35:26;;;;;;;9.52;4.88;;;6.90;99.90;;;;;;5008003;28;20029;-62
2021/03/15 10:37:56;;;;;;;13.85;4.68;;;6.90;99.90;;;;;;5011659;28;20514;-61
2021/03/15 10:40:23;;;;;;;13.52;5.90;;;6.70;99.90;;;;;;4996221;28;20037;-61
2021/03/15 10:42:50;;;;;;;16.02;6.70;;;6.90;99.90;;;;;;4995423;28;20048;-62
2021/03/15 10:45:16;;;;;;;12.40;6.00;;;7.00;99.90;;;;;;5006193;28;20066;-62
2021/03/15 10:47:42;;;;;;;14.30;4.82;;;7.00;99.90;;;;;;4999659;28;20026;-62
2021/03/15 10:50:32;;;;;;;20.20;6.75;;;7.30;99.90;;;;;;5016738;28;20537;-62
2021/03/15 10:53:17;;;;;;;10.50;4.90;;;7.40;99.90;;;;;;5007151;28;20029;-62
2021/03/15 10:55:43;;;;;;;13.30;5.78;;;7.70;99.90;;;;;;5014935;28;20029;-62
2021/03/15 10:58:11;;;;;;;13.55;5.75;;;8.00;99.90;;;;;;5014766;28;20033;-61
2021/03/15 11:00:51;;;;;;;11.90;5.93;;;8.00;99.90;;;;;;5011437;28;20055;-61
2021/03/15 11:03:29;;;;;;;13.68;5.95;;;8.30;99.90;;;;;;4994010;28;20018;-62
2021/03/15 11:06:06;;;;;;;13.68;5.53;;;8.40;99.90;;;;;;5014811;28;20022;-62
2021/03/15 11:08:32;;;;;;;13.82;5.22;;;8.80;99.90;;;;;;4998082;28;20488;-62
2021/03/15 11:11:15;;;;;;;10.18;4.28;;;9.00;99.90;;;;;;5004704;28;20022;-63
2021/03/15 11:13:45;;;;;;;8.23;4.68;;;9.10;99.90;;;;;;4967805;28;20037;-62
2021/03/15 11:16:28;;;;;;;11.50;4.25;;;9.30;99.90;;;;;;5009208;28;20064;-62
2021/03/15 11:19:03;;;;;;;12.30;3.80;;;9.20;99.90;;;;;;5002303;28;20406;-61
2021/03/15 11:21:29;;;;;;;12.63;4.50;;;9.30;99.90;;;;;;5014150;28;20062;-62
2021/03/15 11:23:55;;;;;;;10.85;4.15;;;9.50;99.90;;;;;;4991446;28;20061;-62
2021/03/15 11:26:21;;;;;;;16.65;4.85;;;9.40;99.90;;;;;;4999326;28;20537;-62
2021/03/15 11:28:55;;;;;;;11.77;3.50;;;9.10;99.90;;;;;;5012703;28;20079;-62
2021/03/15 11:31:24;;;;;;;10.52;2.70;;;8.50;99.90;;;;;;4994371;28;20083;-62
2021/03/15 11:33:55;;;;;;;17.73;2.90;;;8.40;99.90;;;;;;4987023;28;20519;-61
2021/03/15 11:36:23;;;;;;;7.65;2.60;;;8.20;99.90;;;;;;5023473;28;20076;-61
2021/03/15 11:38:55;;;;;;;11.27;2.75;;;8.20;99.90;;;;;;5003597;28;20061;-62
2021/03/15 11:41:24;;;;;;;7.00;2.28;;;8.20;99.90;;;;;;5007174;28;20083;-60
2021/03/15 11:43:50;;;;;;;10.20;2.65;;;8.10;99.90;;;;;;4995356;28;20033;-62
2021/03/15 11:46:16;;;;;;;7.45;2.65;;;8.00;99.90;;;;;;5005557;28;20072;-60
2021/03/15 11:48:42;;;;;;;10.55;2.65;;;7.90;99.90;;;;;;4998387;28;20064;-62
2021/03/15 11:51:11;;;;;;;4.90;2.05;;;8.20;99.90;;;;;;5007565;28;20537;-62
2021/03/15 11:53:37;;;;;;;5.38;1.88;;;8.40;99.90;;;;;;4995943;28;20042;-62
2021/03/15 11:56:03;;;;;;;7.55;1.55;;;8.30;99.90;;;;;;5009139;28;20120;-62
2021/03/15 11:58:28;;;;;;;6.82;1.33;;;8.10;99.90;;;;;;5014435;28;20137;-61
2021/03/15 12:00:54;;;;;;;3.50;1.23;;;8.00;99.90;;;;;;5005216;28;20108;-62
2021/03/15 12:03:19;;;;;;;6.82;1.73;;;8.00;99.90;;;;;;4999754;28;20032;-62
2021/03/15 12:05:45;;;;;;;7.22;1.65;;;7.80;99.90;;;;;;5007964;28;20025;-62
2021/03/15 12:08:11;;;;;;;5.95;1.40;;;7.90;99.90;;;;;;5015327;28;20022;-61
2021/03/15 12:10:36;;;;;;;4.75;1.75;;;8.10;99.90;;;;;;5012894;28;20434;-61
2021/03/15 12:13:02;;;;;;;5.70;2.28;;;8.20;99.90;;;;;;4998727;28;20550;-62
2021/03/15 12:15:28;;;;;;;4.45;1.40;;;8.40;99.90;;;;;;5019509;28;20034;-63
2021/03/15 12:17:54;;;;;;;5.93;2.25;;;8.40;99.90;;;;;;5013729;28;20034;-62
2021/03/15 12:20:19;;;;;;;8.80;2.75;;;8.40;99.90;;;;;;5013861;28;20084;-61
2021/03/15 12:22:48;;;;;;;8.50;2.97;;;8.60;99.90;;;;;;5009662;28;20036;-62
2021/03/15 12:25:14;;;;;;;6.50;2.38;;;8.40;99.90;;;;;;5002978;28;20065;-61
2021/03/15 12:27:39;;;;;;;9.15;2.53;;;8.50;99.90;;;;;;5003048;28;20426;-62
2021/03/15 12:30:06;;;;;;;15.25;3.10;;;8.60;99.90;;;;;;5008631;28;20034;-60
2021/03/15 12:32:32;;;;;;;7.93;1.75;;;8.70;99.90;;;;;;5006696;28;20470;-61
2021/03/15 12:34:58;;;;;;;11.38;2.20;;;8.40;99.90;;;;;;5006135;28;20117;-62
2021/03/15 12:37:24;;;;;;;8.15;2.60;;;8.20;99.90;;;;;;5012716;28;20030;-62
2021/03/15 12:39:49;;;;;;;9.55;2.30;;;8.00;99.90;;;;;;5015105;28;20557;-62
2021/03/15 12:42:17;;;;;;;13.70;2.45;;;8.00;99.90;;;;;;5015843;28;20022;-63
2021/03/15 12:44:43;;;;;;;8.88;2.05;;;7.70;99.90;;;;;;5013259;28;20365;-62
2021/03/15 12:47:09;;;;;;;5.55;2.35;;;7.80;99.90;;;;;;5007758;28;20722;-62
2021/03/15 12:49:35;;;;;;;9.15;1.80;;;8.00;99.90;;;;;;5010989;28;20030;-63
2021/03/15 12:52:01;;;;;;;7.20;1.70;;;8.40;99.90;;;;;;5010772;28;20076;-63
2021/03/15 12:54:27;;;;;;;8.32;2.15;;;8.60;99.90;;;;;;5014659;28;20026;-60
2021/03/15 12:56:52;;;;;;;8.23;2.10;;;8.60;99.90;;;;;;5013534;28;20092;-63
2021/03/15 12:59:18;;;;;;;10.02;1.70;;;8.60;99.90;;;;;;5010054;28;20511;-62
2021/03/15 13:01:43;;;;;;;9.15;1.98;;;8.70;99.90;;;;;;5003854;28;20034;-61